createdAt,value
2018-07-10T00:02:48.505Z,16.80
2018-07-10T00:07:31.555Z,16.60
2018-07-10T00:10:29.265Z,16.70
2018-07-10T00:12:57.773Z,16.10
2018-07-10T00:15:26.208Z,16.00
2018-07-10T00:17:54.744Z,16.00
2018-07-10T00:20:23.288Z,16.10
2018-07-10T00:22:52.160Z,16.10
2018-07-10T00:25:20.700Z,16.10
2018-07-10T00:27:49.248Z,15.90
2018-07-10T00:30:17.811Z,16.00
2018-07-10T00:32:46.277Z,16.00
2018-07-10T00:35:14.851Z,16.10
2018-07-10T00:37:53.684Z,16.00
2018-07-10T00:40:22.200Z,16.00
2018-07-10T00:42:50.752Z,16.00
2018-07-10T00:45:19.324Z,16.00
2018-07-10T00:47:47.882Z,15.90
2018-07-10T00:50:16.607Z,15.70
2018-07-10T00:52:45.142Z,15.70
2018-07-10T00:55:13.751Z,15.80
2018-07-10T00:57:42.272Z,15.70
2018-07-10T01:00:13.822Z,15.80
2018-07-10T01:02:42.273Z,15.80
2018-07-10T01:05:10.733Z,15.60
2018-07-10T01:07:39.236Z,15.50
2018-07-10T01:10:07.673Z,15.70
2018-07-10T01:12:36.133Z,15.60
2018-07-10T01:15:04.692Z,15.50
2018-07-10T01:17:33.221Z,15.40
2018-07-10T01:20:01.825Z,15.50
2018-07-10T01:22:30.356Z,15.50
2018-07-10T01:24:58.892Z,15.60
2018-07-10T01:27:27.396Z,15.40
2018-07-10T01:29:55.952Z,15.50
2018-07-10T01:32:24.493Z,15.30
2018-07-10T01:34:53.003Z,15.40
2018-07-10T01:37:21.529Z,15.40
2018-07-10T01:39:50.000Z,15.50
2018-07-10T01:42:18.557Z,15.50
2018-07-10T01:44:47.090Z,15.20
2018-07-10T01:47:15.600Z,15.20
2018-07-10T01:49:44.080Z,15.30
2018-07-10T01:52:12.612Z,15.20
2018-07-10T01:54:41.145Z,15.20
2018-07-10T01:57:09.669Z,15.30
2018-07-10T02:02:06.368Z,15.10
2018-07-10T02:04:34.876Z,15.10
2018-07-10T02:07:03.429Z,15.10
2018-07-10T02:09:34.825Z,15.10
2018-07-10T02:12:03.591Z,15.10
2018-07-10T02:14:32.132Z,15.10
2018-07-10T02:17:00.629Z,15.10
2018-07-10T02:19:29.265Z,15.10
2018-07-10T02:21:57.788Z,15.10
2018-07-10T02:24:26.908Z,15.20
2018-07-10T02:26:55.613Z,15.10
2018-07-10T02:29:24.116Z,15.10
2018-07-10T02:31:52.609Z,15.10
2018-07-10T02:34:21.136Z,15.10
2018-07-10T02:36:49.613Z,15.10
2018-07-10T02:39:18.757Z,14.80
2018-07-10T02:41:47.300Z,14.90
2018-07-10T02:44:15.784Z,14.90
2018-07-10T02:46:44.317Z,14.80
2018-07-10T02:49:16.993Z,14.80
2018-07-10T02:51:56.492Z,14.80
2018-07-10T02:54:27.515Z,14.90
2018-07-10T02:56:57.245Z,15.10
2018-07-10T02:59:31.745Z,14.90
2018-07-10T03:02:00.305Z,14.70
2018-07-10T03:04:29.020Z,14.90
2018-07-10T03:06:57.530Z,14.80
2018-07-10T03:09:26.069Z,14.80
2018-07-10T03:11:54.569Z,14.90
2018-07-10T03:14:23.572Z,14.90
2018-07-10T03:16:52.220Z,15.00
2018-07-10T03:19:21.938Z,15.00
2018-07-10T03:21:50.435Z,15.00
2018-07-10T03:24:18.950Z,15.00
2018-07-10T03:26:47.462Z,14.90
2018-07-10T03:29:15.993Z,14.70
2018-07-10T03:31:44.457Z,14.80
2018-07-10T03:34:12.957Z,14.80
2018-07-10T03:36:41.484Z,14.90
2018-07-10T03:39:10.221Z,14.70
2018-07-10T03:41:38.733Z,14.80
2018-07-10T03:44:07.287Z,15.00
2018-07-10T03:46:35.944Z,14.80
2018-07-10T03:49:04.529Z,14.80
2018-07-10T03:51:33.031Z,14.70
2018-07-10T03:54:01.588Z,14.50
2018-07-10T03:56:30.150Z,14.50
2018-07-10T03:58:59.790Z,14.40
2018-07-10T04:01:34.165Z,14.50
2018-07-10T04:04:02.689Z,14.50
2018-07-10T04:06:31.173Z,14.50
2018-07-10T04:09:01.584Z,14.50
2018-07-10T04:11:30.065Z,14.60
2018-07-10T04:13:58.852Z,14.80
2018-07-10T04:16:28.136Z,14.70
2018-07-10T04:18:57.453Z,14.40
2018-07-10T04:21:28.744Z,14.60
2018-07-10T04:24:10.461Z,14.70
2018-07-10T04:26:42.997Z,14.70
2018-07-10T04:29:16.984Z,14.80
2018-07-10T04:31:54.209Z,14.80
2018-07-10T04:34:23.017Z,14.80
2018-07-10T04:36:51.889Z,14.80
2018-07-10T04:39:20.436Z,14.80
2018-07-10T04:42:02.869Z,14.60
2018-07-10T04:44:33.433Z,14.90
2018-07-10T04:47:17.684Z,14.80
2018-07-10T04:50:21.376Z,14.90
2018-07-10T04:52:53.980Z,14.70
2018-07-10T04:55:22.567Z,14.80
2018-07-10T04:58:05.964Z,14.80
2018-07-10T05:01:07.639Z,14.70
2018-07-10T05:03:36.160Z,14.60
2018-07-10T05:06:06.132Z,14.60
2018-07-10T05:08:34.940Z,14.80
2018-07-10T05:11:03.663Z,14.90
2018-07-10T05:13:32.188Z,14.80
2018-07-10T05:16:03.289Z,14.80
2018-07-10T05:18:32.704Z,14.70
2018-07-10T05:21:05.101Z,14.80
2018-07-10T05:23:33.631Z,14.80
2018-07-10T05:26:02.144Z,14.80
2018-07-10T05:28:30.674Z,14.80
2018-07-10T05:31:00.844Z,14.90
2018-07-10T05:35:57.573Z,14.80
2018-07-10T05:38:38.498Z,15.00
2018-07-10T05:41:07.648Z,15.10
2018-07-10T05:43:46.001Z,15.30
2018-07-10T05:46:15.009Z,15.20
2018-07-10T05:48:55.764Z,15.20
2018-07-10T05:51:25.864Z,15.40
2018-07-10T05:53:54.464Z,15.20
2018-07-10T05:56:22.945Z,15.00
2018-07-10T05:58:51.496Z,15.40
2018-07-10T06:01:19.973Z,15.50
2018-07-10T06:03:48.452Z,15.40
2018-07-10T06:06:17.003Z,15.50
2018-07-10T06:08:45.572Z,15.50
2018-07-10T06:11:14.117Z,15.20
2018-07-10T06:13:42.584Z,15.60
2018-07-10T06:16:11.215Z,15.60
2018-07-10T06:18:39.596Z,15.70
2018-07-10T06:21:08.101Z,15.80
2018-07-10T06:23:40.494Z,15.90
2018-07-10T06:26:09.192Z,15.90
2018-07-10T06:28:38.284Z,16.10
2018-07-10T06:31:11.560Z,15.90
2018-07-10T06:34:00.730Z,16.00
2018-07-10T06:39:15.693Z,16.10
2018-07-10T06:42:00.216Z,16.60
2018-07-10T06:44:28.729Z,16.20
2018-07-10T06:47:00.800Z,16.20
2018-07-10T06:49:35.004Z,16.30
2018-07-10T06:52:16.162Z,16.50
2018-07-10T06:55:05.438Z,17.50
2018-07-10T06:57:36.222Z,19.40
2018-07-10T07:00:08.730Z,18.20
2018-07-10T07:02:37.865Z,17.80
2018-07-10T07:05:06.899Z,18.80
2018-07-10T07:07:36.468Z,19.70
2018-07-10T07:10:07.380Z,20.60
2018-07-10T07:12:37.303Z,19.80
2018-07-10T07:15:08.069Z,19.60
2018-07-10T07:17:37.473Z,21.20
2018-07-10T07:20:06.289Z,20.00
2018-07-10T07:22:35.029Z,19.70
2018-07-10T07:25:06.256Z,19.90
2018-07-10T07:27:34.777Z,20.10
2018-07-10T07:30:03.368Z,21.00
2018-07-10T07:32:32.101Z,19.90
2018-07-10T07:35:00.783Z,19.90
2018-07-10T07:37:29.571Z,20.70
2018-07-10T07:39:58.300Z,19.80
2018-07-10T07:42:27.484Z,18.00
2018-07-10T07:44:56.356Z,18.80
2018-07-10T07:47:27.888Z,18.40
2018-07-10T07:49:56.708Z,17.60
2018-07-10T07:52:27.752Z,17.70
2018-07-10T07:54:57.112Z,20.20
2018-07-10T07:57:26.157Z,19.80
2018-07-10T07:59:54.616Z,19.80
2018-07-10T08:02:23.905Z,20.00
2018-07-10T08:04:52.877Z,20.90
2018-07-10T08:07:22.501Z,20.70
2018-07-10T08:09:52.599Z,20.50
2018-07-10T08:12:21.468Z,19.60
2018-07-10T08:14:50.208Z,19.70
2018-07-10T08:17:18.760Z,20.30
2018-07-10T08:19:47.551Z,19.60
2018-07-10T08:22:16.056Z,18.90
2018-07-10T08:24:44.601Z,20.50
2018-07-10T08:27:13.112Z,21.40
2018-07-10T08:34:38.203Z,18.30
2018-07-10T08:37:06.738Z,18.30
2018-07-10T08:39:35.228Z,18.50
2018-07-10T08:42:05.353Z,18.50
2018-07-10T08:44:34.101Z,17.90
2018-07-10T08:47:02.674Z,19.30
2018-07-10T08:49:35.053Z,20.20
2018-07-10T08:52:03.589Z,19.70
2018-07-10T08:54:32.117Z,19.80
2018-07-10T08:57:01.757Z,19.30
2018-07-10T08:59:30.823Z,19.80
2018-07-10T09:01:59.339Z,19.50
2018-07-10T09:04:27.875Z,20.60
2018-07-10T09:06:56.349Z,20.50
2018-07-10T09:09:24.864Z,20.20
2018-07-10T09:14:21.540Z,19.70
2018-07-10T09:16:50.092Z,19.80
2018-07-10T09:19:21.228Z,21.00
2018-07-10T09:22:09.057Z,19.90
2018-07-10T09:24:48.589Z,21.00
2018-07-10T09:27:19.608Z,22.00
2018-07-10T09:29:48.833Z,21.10
2018-07-10T09:32:50.116Z,20.40
2018-07-10T09:35:18.636Z,20.90
2018-07-10T09:37:47.174Z,20.40
2018-07-10T09:40:17.994Z,19.50
2018-07-10T09:42:55.340Z,19.70
2018-07-10T09:45:26.148Z,20.70
2018-07-10T09:47:54.772Z,20.40
2018-07-10T09:50:23.696Z,20.30
2018-07-10T09:52:52.449Z,19.90
2018-07-10T09:55:20.997Z,19.20
2018-07-10T09:57:49.512Z,19.80
2018-07-10T10:00:22.520Z,19.50
2018-07-10T10:02:51.610Z,19.10
2018-07-10T10:07:48.286Z,18.90
2018-07-10T10:10:16.762Z,19.10
2018-07-10T10:12:45.584Z,18.80
2018-07-10T10:15:14.126Z,19.10
2018-07-10T10:17:42.671Z,19.80
2018-07-10T10:22:40.257Z,19.40
2018-07-10T10:25:08.769Z,19.00
2018-07-10T10:27:37.373Z,18.90
2018-07-10T10:30:05.893Z,19.60
2018-07-10T10:32:34.389Z,19.60
2018-07-10T10:35:02.892Z,19.50
2018-07-10T10:37:31.437Z,19.60
2018-07-10T10:40:00.958Z,18.80
2018-07-10T10:42:29.489Z,19.30
2018-07-10T10:45:01.865Z,19.10
2018-07-10T10:47:31.365Z,18.90
2018-07-10T10:50:01.493Z,18.70
2018-07-10T10:52:30.006Z,19.10
2018-07-10T10:54:58.595Z,19.60
2018-07-10T10:57:30.224Z,19.60
2018-07-10T10:59:58.745Z,19.60
2018-07-10T11:02:27.308Z,19.40
2018-07-10T11:04:55.828Z,19.60
2018-07-10T11:07:24.362Z,18.80
2018-07-10T11:09:52.905Z,18.90
2018-07-10T11:12:21.616Z,18.90
2018-07-10T11:14:50.133Z,19.10
2018-07-10T11:17:33.093Z,18.70
2018-07-10T11:20:10.152Z,18.60
2018-07-10T11:22:47.012Z,18.80
2018-07-10T11:25:15.782Z,19.00
2018-07-10T11:27:52.262Z,19.20
2018-07-10T11:30:20.809Z,18.90
2018-07-10T11:32:49.273Z,18.30
2018-07-10T11:35:17.786Z,18.00
2018-07-10T11:37:46.316Z,18.50
2018-07-10T11:40:14.861Z,18.60
2018-07-10T11:42:43.704Z,19.00
2018-07-10T11:45:12.616Z,18.90
2018-07-10T11:47:41.284Z,18.80
2018-07-10T11:50:09.788Z,19.00
2018-07-10T11:52:38.656Z,18.90
2018-07-10T11:55:07.625Z,18.40
2018-07-10T11:57:36.153Z,18.40
2018-07-10T12:00:04.704Z,18.10
2018-07-10T12:02:40.771Z,18.00
2018-07-10T12:05:09.281Z,18.00
2018-07-10T12:07:38.653Z,18.50
2018-07-10T12:10:18.464Z,19.10
2018-07-10T12:12:48.105Z,19.60
2018-07-10T12:15:16.657Z,18.90
2018-07-10T12:17:47.496Z,19.10
2018-07-10T12:20:16.028Z,18.60
2018-07-10T12:22:44.577Z,19.00
2018-07-10T12:25:13.277Z,19.00
2018-07-10T12:27:41.813Z,18.70
2018-07-10T12:30:10.309Z,18.80
2018-07-10T12:32:40.020Z,19.30
2018-07-10T12:35:09.512Z,18.70
2018-07-10T12:37:40.568Z,18.70
2018-07-10T12:40:10.156Z,18.40
2018-07-10T12:42:40.085Z,18.30
2018-07-10T12:45:09.467Z,18.40
2018-07-10T12:47:37.973Z,18.60
2018-07-10T12:50:06.901Z,18.10
2018-07-10T12:52:35.453Z,18.50
2018-07-10T12:55:03.972Z,18.70
2018-07-10T12:57:37.700Z,19.10
2018-07-10T13:00:06.252Z,19.30
2018-07-10T13:02:36.688Z,18.60
2018-07-10T13:05:06.196Z,18.90
2018-07-10T13:07:34.788Z,17.70
2018-07-10T13:10:03.315Z,17.00
2018-07-10T13:12:32.182Z,17.00
2018-07-10T13:15:00.732Z,16.90
2018-07-10T13:17:29.568Z,17.30
2018-07-10T13:20:03.015Z,17.30
2018-07-10T13:22:31.576Z,17.30
2018-07-10T13:25:00.235Z,17.40
2018-07-10T13:27:29.663Z,17.20
2018-07-10T13:29:58.452Z,17.20
2018-07-10T13:32:31.666Z,17.40
2018-07-10T13:35:00.281Z,17.70
2018-07-10T13:37:29.698Z,17.90
2018-07-10T13:40:02.817Z,18.00
2018-07-10T13:42:48.386Z,18.00
2018-07-10T13:45:18.158Z,17.90
2018-07-10T13:47:46.726Z,18.50
2018-07-10T13:50:18.664Z,18.40
2018-07-10T13:52:47.240Z,18.90
2018-07-10T13:55:15.808Z,19.30
2018-07-10T13:58:47.745Z,20.00
2018-07-10T14:01:17.027Z,19.50
2018-07-10T14:03:45.852Z,19.40
2018-07-10T14:06:14.706Z,19.10
2018-07-10T14:11:11.994Z,18.60
2018-07-10T14:13:40.879Z,18.70
2018-07-10T14:16:09.464Z,18.60
2018-07-10T14:18:38.182Z,19.10
2018-07-10T14:21:09.025Z,18.40
2018-07-10T14:23:38.090Z,18.40
2018-07-10T14:26:07.212Z,18.60
2018-07-10T14:28:36.253Z,18.70
2018-07-10T14:31:04.795Z,18.70
2018-07-10T14:33:33.719Z,18.90
2018-07-10T14:36:02.241Z,19.20
2018-07-10T14:38:31.526Z,19.80
2018-07-10T14:41:04.273Z,20.10
2018-07-10T14:43:37.645Z,20.00
2018-07-10T14:46:09.626Z,19.40
2018-07-10T14:48:43.917Z,19.10
2018-07-10T14:51:13.284Z,19.00
2018-07-10T14:56:10.616Z,18.20
2018-07-10T14:58:39.148Z,18.40
2018-07-10T15:01:07.665Z,18.10
2018-07-10T15:03:36.201Z,18.10
2018-07-10T15:06:04.699Z,17.70
2018-07-10T15:08:33.229Z,17.50
2018-07-10T15:11:01.698Z,17.30
2018-07-10T15:13:35.312Z,17.40
2018-07-10T15:16:04.090Z,17.50
2018-07-10T15:18:37.967Z,17.20
2018-07-10T15:21:06.430Z,17.30
2018-07-10T15:23:35.044Z,17.40
2018-07-10T15:26:03.616Z,17.50
2018-07-10T15:28:32.365Z,17.50
2018-07-10T15:31:01.138Z,17.40
2018-07-10T15:33:29.735Z,17.10
2018-07-10T15:35:58.238Z,16.40
2018-07-10T15:38:26.896Z,16.30
2018-07-10T15:43:24.645Z,16.60
2018-07-10T15:45:53.125Z,16.60
2018-07-10T15:48:21.652Z,16.30
2018-07-10T15:50:50.249Z,16.00
2018-07-10T15:53:18.896Z,15.90
2018-07-10T15:55:53.719Z,15.90
2018-07-10T15:58:24.339Z,15.90
2018-07-10T16:00:53.053Z,15.90
2018-07-10T16:06:20.019Z,15.80
2018-07-10T16:08:48.611Z,16.00
2018-07-10T16:11:17.201Z,15.90
2018-07-10T16:13:45.753Z,16.10
2018-07-10T16:16:15.773Z,16.20
2018-07-10T16:18:57.522Z,16.40
2018-07-10T16:21:32.019Z,16.60
2018-07-10T16:24:02.917Z,16.50
2018-07-10T16:29:33.311Z,16.50
2018-07-10T16:32:04.773Z,16.20
2018-07-10T16:34:33.402Z,16.30
2018-07-10T16:37:03.012Z,16.30
2018-07-10T16:39:31.651Z,16.40
2018-07-10T16:42:05.617Z,16.50
2018-07-10T16:44:35.560Z,16.60
2018-07-10T16:47:07.945Z,16.60
2018-07-10T16:49:44.198Z,16.60
2018-07-10T16:52:25.857Z,16.70
2018-07-10T16:54:54.537Z,16.60
2018-07-10T16:57:23.158Z,16.40
2018-07-10T16:59:53.873Z,16.50
2018-07-10T17:02:22.477Z,16.40
2018-07-10T17:04:58.764Z,16.50
2018-07-10T17:07:27.345Z,16.60
2018-07-10T17:09:55.958Z,16.60
2018-07-10T17:12:24.606Z,16.60
2018-07-10T17:14:56.649Z,16.50
2018-07-10T17:17:25.329Z,16.40
2018-07-10T17:19:54.492Z,16.40
2018-07-10T17:22:24.525Z,16.40
2018-07-10T17:24:54.405Z,16.20
2018-07-10T17:27:32.477Z,16.30
2018-07-10T17:30:03.354Z,16.30
2018-07-10T17:32:33.736Z,16.20
2018-07-10T17:35:03.138Z,16.20
2018-07-10T17:37:34.540Z,16.30
2018-07-10T17:40:05.144Z,16.30
2018-07-10T17:42:35.284Z,16.20
2018-07-10T17:45:04.249Z,16.20
2018-07-10T17:47:33.310Z,16.00
2018-07-10T17:50:02.210Z,16.00
2018-07-10T17:54:59.421Z,15.80
2018-07-10T17:57:29.076Z,15.90
2018-07-10T17:59:59.224Z,15.90
2018-07-10T18:02:27.858Z,15.90
2018-07-10T18:04:56.469Z,15.90
2018-07-10T18:07:25.324Z,16.00
2018-07-10T18:09:53.959Z,15.90
2018-07-10T18:12:22.556Z,16.00
2018-07-10T18:14:54.309Z,16.00
2018-07-10T18:17:22.891Z,16.00
2018-07-10T18:19:51.473Z,16.20
2018-07-10T18:22:20.685Z,16.30
2018-07-10T18:24:50.724Z,16.30
2018-07-10T18:27:19.428Z,16.20
2018-07-10T18:29:49.329Z,16.20
2018-07-10T18:32:17.864Z,16.30
2018-07-10T18:34:46.498Z,16.20
2018-07-10T18:37:15.175Z,16.30
2018-07-10T18:39:47.476Z,16.30
2018-07-10T18:42:16.159Z,16.50
2018-07-10T18:44:45.031Z,16.50
2018-07-10T18:47:13.669Z,16.40
2018-07-10T18:49:50.673Z,16.30
2018-07-10T18:52:23.650Z,16.20
2018-07-10T18:54:52.453Z,16.10
2018-07-10T18:57:38.923Z,16.10
2018-07-10T19:00:07.987Z,16.10
2018-07-10T19:02:58.161Z,16.00
2018-07-10T19:05:26.883Z,16.00
2018-07-10T19:07:55.498Z,15.90
2018-07-10T19:10:24.184Z,15.90
2018-07-10T19:12:52.794Z,15.90
2018-07-10T19:15:21.469Z,16.00
2018-07-10T19:17:54.513Z,16.10
2018-07-10T19:20:23.234Z,16.10
2018-07-10T19:22:59.380Z,16.10
2018-07-10T19:25:28.038Z,16.10
2018-07-10T19:30:32.007Z,16.20
2018-07-10T19:33:01.555Z,16.20
2018-07-10T19:37:58.589Z,16.30
2018-07-10T19:40:28.156Z,16.40
2018-07-10T19:42:57.481Z,16.40
2018-07-10T19:45:26.193Z,16.50
2018-07-10T19:47:55.854Z,16.50
2018-07-10T19:50:29.125Z,16.50
2018-07-10T19:52:58.323Z,16.40
2018-07-10T19:55:28.309Z,16.40
2018-07-10T19:58:03.716Z,16.40
2018-07-10T20:00:38.220Z,16.40
2018-07-10T20:03:06.876Z,16.40
2018-07-10T20:05:36.563Z,16.40
2018-07-10T20:08:11.682Z,16.40
2018-07-10T20:10:51.922Z,16.40
2018-07-10T20:13:32.608Z,16.40
2018-07-10T20:16:08.068Z,16.30
2018-07-10T20:21:03.233Z,16.30
2018-07-10T20:24:37.814Z,16.20
2018-07-10T20:28:13.970Z,16.20
2018-07-10T20:31:20.166Z,16.10
2018-07-10T20:33:57.106Z,16.00
2018-07-10T20:36:33.098Z,15.90
2018-07-10T20:39:07.579Z,15.80
2018-07-10T20:41:44.492Z,15.70
2018-07-10T20:44:16.773Z,15.60
2018-07-10T20:46:54.753Z,15.60
2018-07-10T20:49:48.037Z,15.50
2018-07-10T20:52:26.142Z,15.50
2018-07-10T20:57:36.286Z,15.40
2018-07-10T21:00:09.112Z,15.40
2018-07-10T21:02:46.727Z,15.30
2018-07-10T21:05:16.280Z,15.30
2018-07-10T21:08:10.430Z,15.30
2018-07-10T21:10:45.190Z,15.30
2018-07-10T21:16:03.894Z,15.30
2018-07-10T21:18:40.638Z,15.20
2018-07-10T21:21:23.496Z,15.20
2018-07-10T21:23:57.077Z,15.30
2018-07-10T21:27:33.732Z,15.30
2018-07-10T21:30:11.777Z,15.40
2018-07-10T21:32:52.920Z,15.50
2018-07-10T21:35:23.045Z,15.50
2018-07-10T21:40:01.772Z,15.50
2018-07-10T21:45:21.081Z,15.60
2018-07-10T21:47:57.829Z,15.50
2018-07-10T21:50:34.664Z,15.50
2018-07-10T21:53:03.990Z,15.50
2018-07-10T21:55:32.814Z,15.50
2018-07-10T21:58:01.968Z,15.50
2018-07-10T22:00:42.026Z,15.40
2018-07-10T22:03:10.645Z,15.30
2018-07-10T22:05:39.233Z,15.30
2018-07-10T22:08:07.805Z,15.10
2018-07-10T22:10:36.353Z,15.10
2018-07-10T22:13:04.865Z,15.10
2018-07-10T22:15:33.423Z,15.10
2018-07-10T22:18:02.993Z,15.00
2018-07-10T22:20:31.517Z,15.00
2018-07-10T22:23:00.550Z,14.90
2018-07-10T22:25:29.830Z,14.90
2018-07-10T22:27:58.356Z,14.90
2018-07-10T22:30:32.294Z,14.80
2018-07-10T22:33:03.077Z,14.90
2018-07-10T22:35:31.597Z,14.90
2018-07-10T22:38:00.484Z,14.80
2018-07-10T22:40:28.996Z,14.90
2018-07-10T22:42:57.536Z,14.90
2018-07-10T22:45:27.501Z,14.90
2018-07-10T22:50:25.069Z,14.80
2018-07-10T22:52:56.694Z,14.80
2018-07-10T22:55:26.502Z,14.80
2018-07-10T22:58:09.757Z,14.80
2018-07-10T23:00:39.529Z,14.70
2018-07-10T23:03:15.659Z,14.70
2018-07-10T23:05:44.929Z,14.60
2018-07-10T23:08:13.432Z,14.60
2018-07-10T23:10:41.980Z,14.50
2018-07-10T23:13:10.837Z,14.50
2018-07-10T23:15:39.392Z,14.40
2018-07-10T23:18:07.884Z,14.30
2018-07-10T23:20:36.433Z,14.30
2018-07-10T23:23:05.769Z,14.30
2018-07-10T23:25:34.357Z,14.30
2018-07-10T23:28:04.784Z,14.30
2018-07-10T23:30:37.068Z,14.30
2018-07-10T23:33:10.760Z,14.30
2018-07-10T23:35:41.009Z,14.20
2018-07-10T23:38:28.320Z,14.20
2018-07-10T23:40:59.819Z,14.20
2018-07-10T23:43:34.312Z,14.10
2018-07-10T23:48:33.628Z,14.00
2018-07-10T23:51:02.212Z,13.90
2018-07-10T23:53:46.936Z,13.80
2018-07-10T23:56:15.792Z,13.70
2018-07-10T23:58:45.432Z,13.80
